Terminal Aerodrome Forecast
Issued by NWS Sioux Falls, SD

Home | Current Version | Previous Version | Text Only | Print | Product List | Glossary Off
Versions: 1 2 3 4 5 6 7 8 9 10 11 12 13 14 15

000
FTUS43 KFSD 292320
TAFFSD
TAF
KFSD 292320Z 3000/3024 VRB04KT P6SM SKC
     FM300800 10005KT P6SM -TSRA BKN090CB
      TEMPO 3008/3010 4SM TS OVC040CB
     FM301000 11006KT P6SM VCTS BKN070CB
     FM301400 13010KT P6SM SCT070
     FM301600 15013G20KT P6SM SCT050=

USA.gov is the U.S. government's official web portal to all federal, state and local government web resources and services.